sensor_id;sensor_type;location;lat;lon;timestamp;temperature;humidity
5899;DHT22;2975;50.956;6.962;2024-01-27T00:01:11;3.90;99.90
5899;DHT22;2975;50.956;6.962;2024-01-27T00:03:36;3.90;99.90
5899;DHT22;2975;50.956;6.962;2024-01-27T00:06:02;3.90;99.90
5899;DHT22;2975;50.956;6.962;2024-01-27T00:08:28;3.90;99.90
5899;DHT22;2975;50.956;6.962;2024-01-27T00:10:53;3.90;99.90
5899;DHT22;2975;50.956;6.962;2024-01-27T00:13:19;3.90;99.90
5899;DHT22;2975;50.956;6.962;2024-01-27T00:15:46;3.90;99.90
5899;DHT22;2975;50.956;6.962;2024-01-27T00:18:12;3.80;99.90
5899;DHT22;2975;50.956;6.962;2024-01-27T00:20:37;3.80;99.90
5899;DHT22;2975;50.956;6.962;2024-01-27T00:23:03;3.70;99.90
5899;DHT22;2975;50.956;6.962;2024-01-27T00:25:29;3.70;99.90
5899;DHT22;2975;50.956;6.962;2024-01-27T00:27:55;3.70;99.90
5899;DHT22;2975;50.956;6.962;2024-01-27T00:30:20;3.60;99.90
5899;DHT22;2975;50.956;6.962;2024-01-27T00:32:46;3.60;99.90
5899;DHT22;2975;50.956;6.962;2024-01-27T00:35:12;3.60;99.90
5899;DHT22;2975;50.956;6.962;2024-01-27T00:37:40;3.50;99.90
5899;DHT22;2975;50.956;6.962;2024-01-27T00:40:10;3.40;99.90
5899;DHT22;2975;50.956;6.962;2024-01-27T00:42:36;3.40;99.90
5899;DHT22;2975;50.956;6.962;2024-01-27T00:45:04;3.40;99.90
5899;DHT22;2975;50.956;6.962;2024-01-27T00:47:30;3.50;99.90
5899;DHT22;2975;50.956;6.962;2024-01-27T00:49:55;3.40;99.90
5899;DHT22;2975;50.956;6.962;2024-01-27T00:52:21;3.40;99.90
5899;DHT22;2975;50.956;6.962;2024-01-27T00:54:46;3.40;99.90
5899;DHT22;2975;50.956;6.962;2024-01-27T00:57:12;3.40;99.90
5899;DHT22;2975;50.956;6.962;2024-01-27T00:59:38;3.40;99.90
5899;DHT22;2975;50.956;6.962;2024-01-27T01:02:04;3.40;99.90
5899;DHT22;2975;50.956;6.962;2024-01-27T01:04:30;3.30;99.90
5899;DHT22;2975;50.956;6.962;2024-01-27T01:06:56;3.30;99.90
5899;DHT22;2975;50.956;6.962;2024-01-27T01:09:21;3.30;99.90
5899;DHT22;2975;50.956;6.962;2024-01-27T01:11:47;3.30;99.90
5899;DHT22;2975;50.956;6.962;2024-01-27T01:14:13;3.30;99.90
5899;DHT22;2975;50.956;6.962;2024-01-27T01:16:40;3.20;99.90
5899;DHT22;2975;50.956;6.962;2024-01-27T01:19:06;3.20;99.90
5899;DHT22;2975;50.956;6.962;2024-01-27T01:21:31;3.20;99.90
5899;DHT22;2975;50.956;6.962;2024-01-27T01:23:57;3.10;99.90
5899;DHT22;2975;50.956;6.962;2024-01-27T01:26:24;3.10;99.90
5899;DHT22;2975;50.956;6.962;2024-01-27T01:28:50;3.10;99.90
5899;DHT22;2975;50.956;6.962;2024-01-27T01:31:16;3.10;99.90
5899;DHT22;2975;50.956;6.962;2024-01-27T01:33:42;3.10;99.90
5899;DHT22;2975;50.956;6.962;2024-01-27T01:36:08;3.10;99.90
5899;DHT22;2975;50.956;6.962;2024-01-27T01:38:33;3.10;99.90
5899;DHT22;2975;50.956;6.962;2024-01-27T01:40:59;3.10;99.90
5899;DHT22;2975;50.956;6.962;2024-01-27T01:43:25;3.10;99.90
5899;DHT22;2975;50.956;6.962;2024-01-27T01:45:50;3.00;99.90
5899;DHT22;2975;50.956;6.962;2024-01-27T01:48:19;2.90;99.90
5899;DHT22;2975;50.956;6.962;2024-01-27T01:50:45;3.00;99.90
5899;DHT22;2975;50.956;6.962;2024-01-27T01:53:12;3.00;99.90
5899;DHT22;2975;50.956;6.962;2024-01-27T01:55:38;3.00;99.90
5899;DHT22;2975;50.956;6.962;2024-01-27T01:58:04;3.00;99.90
5899;DHT22;2975;50.956;6.962;2024-01-27T02:00:30;3.00;99.90
5899;DHT22;2975;50.956;6.962;2024-01-27T02:02:56;2.90;99.90
5899;DHT22;2975;50.956;6.962;2024-01-27T02:05:22;2.80;99.90
5899;DHT22;2975;50.956;6.962;2024-01-27T02:07:47;2.70;99.90
5899;DHT22;2975;50.956;6.962;2024-01-27T02:10:14;2.80;99.90
5899;DHT22;2975;50.956;6.962;2024-01-27T02:12:42;2.70;99.90
5899;DHT22;2975;50.956;6.962;2024-01-27T02:15:11;2.70;99.90
5899;DHT22;2975;50.956;6.962;2024-01-27T02:17:38;2.60;99.90
5899;DHT22;2975;50.956;6.962;2024-01-27T02:20:08;2.50;99.90
5899;DHT22;2975;50.956;6.962;2024-01-27T02:22:34;2.60;99.90
5899;DHT22;2975;50.956;6.962;2024-01-27T02:25:00;2.60;99.90
5899;DHT22;2975;50.956;6.962;2024-01-27T02:27:26;2.70;99.90
5899;DHT22;2975;50.956;6.962;2024-01-27T02:29:52;2.70;99.90
5899;DHT22;2975;50.956;6.962;2024-01-27T02:32:17;2.70;99.90
5899;DHT22;2975;50.956;6.962;2024-01-27T02:34:43;2.60;99.90
5899;DHT22;2975;50.956;6.962;2024-01-27T02:37:09;2.50;99.90
5899;DHT22;2975;50.956;6.962;2024-01-27T02:39:35;2.40;99.90
5899;DHT22;2975;50.956;6.962;2024-01-27T02:42:01;2.30;99.90
5899;DHT22;2975;50.956;6.962;2024-01-27T02:44:27;2.20;99.90
5899;DHT22;2975;50.956;6.962;2024-01-27T02:46:52;2.10;99.90
5899;DHT22;2975;50.956;6.962;2024-01-27T02:49:18;2.20;99.90
5899;DHT22;2975;50.956;6.962;2024-01-27T02:51:43;2.10;99.90
5899;DHT22;2975;50.956;6.962;2024-01-27T02:54:09;2.20;99.90
5899;DHT22;2975;50.956;6.962;2024-01-27T02:56:35;2.20;99.90
5899;DHT22;2975;50.956;6.962;2024-01-27T02:59:00;2.20;99.90
5899;DHT22;2975;50.956;6.962;2024-01-27T03:01:26;2.20;99.90
5899;DHT22;2975;50.956;6.962;2024-01-27T03:03:52;2.10;99.90
5899;DHT22;2975;50.956;6.962;2024-01-27T03:06:17;2.10;99.90
5899;DHT22;2975;50.956;6.962;2024-01-27T03:08:43;2.10;99.90
5899;DHT22;2975;50.956;6.962;2024-01-27T03:11:08;2.10;99.90
5899;DHT22;2975;50.956;6.962;2024-01-27T03:13:34;2.00;99.90
5899;DHT22;2975;50.956;6.962;2024-01-27T03:15:59;2.00;99.90
5899;DHT22;2975;50.956;6.962;2024-01-27T03:18:25;1.90;99.90
5899;DHT22;2975;50.956;6.962;2024-01-27T03:20:51;1.90;99.90
5899;DHT22;2975;50.956;6.962;2024-01-27T03:23:17;1.90;99.90
5899;DHT22;2975;50.956;6.962;2024-01-27T03:25:43;1.90;99.90
5899;DHT22;2975;50.956;6.962;2024-01-27T03:28:08;2.10;99.90
5899;DHT22;2975;50.956;6.962;2024-01-27T03:30:34;2.20;99.90
5899;DHT22;2975;50.956;6.962;2024-01-27T03:32:59;2.20;99.90
5899;DHT22;2975;50.956;6.962;2024-01-27T03:35:25;2.20;99.90
5899;DHT22;2975;50.956;6.962;2024-01-27T03:37:50;2.20;99.90
5899;DHT22;2975;50.956;6.962;2024-01-27T03:40:17;2.10;99.90
5899;DHT22;2975;50.956;6.962;2024-01-27T03:42:43;2.00;99.90
5899;DHT22;2975;50.956;6.962;2024-01-27T03:45:09;1.90;99.90
5899;DHT22;2975;50.956;6.962;2024-01-27T03:47:34;1.80;99.90
5899;DHT22;2975;50.956;6.962;2024-01-27T03:50:00;1.80;99.90
5899;DHT22;2975;50.956;6.962;2024-01-27T03:52:25;1.70;99.90
5899;DHT22;2975;50.956;6.962;2024-01-27T03:54:51;1.70;99.90
5899;DHT22;2975;50.956;6.962;2024-01-27T03:57:16;1.70;99.90
5899;DHT22;2975;50.956;6.962;2024-01-27T03:59:42;1.70;99.90
5899;DHT22;2975;50.956;6.962;2024-01-27T04:02:08;1.70;99.90
5899;DHT22;2975;50.956;6.962;2024-01-27T04:04:33;1.60;99.90
5899;DHT22;2975;50.956;6.962;2024-01-27T04:06:59;1.50;99.90
5899;DHT22;2975;50.956;6.962;2024-01-27T04:09:24;1.50;99.90
5899;DHT22;2975;50.956;6.962;2024-01-27T04:11:51;1.50;99.90
5899;DHT22;2975;50.956;6.962;2024-01-27T04:14:16;1.40;99.90
5899;DHT22;2975;50.956;6.962;2024-01-27T04:16:42;1.30;99.90
5899;DHT22;2975;50.956;6.962;2024-01-27T04:19:07;1.30;99.90
5899;DHT22;2975;50.956;6.962;2024-01-27T04:21:33;1.30;99.90
5899;DHT22;2975;50.956;6.962;2024-01-27T04:23:58;1.30;99.90
5899;DHT22;2975;50.956;6.962;2024-01-27T04:26:24;1.20;99.90
5899;DHT22;2975;50.956;6.962;2024-01-27T04:28:50;1.20;99.90
5899;DHT22;2975;50.956;6.962;2024-01-27T04:31:15;1.10;99.90
5899;DHT22;2975;50.956;6.962;2024-01-27T04:33:41;1.10;99.90
5899;DHT22;2975;50.956;6.962;2024-01-27T04:36:06;1.10;99.90
5899;DHT22;2975;50.956;6.962;2024-01-27T04:38:33;1.10;99.90
5899;DHT22;2975;50.956;6.962;2024-01-27T04:40:59;1.10;99.90
5899;DHT22;2975;50.956;6.962;2024-01-27T04:43:25;1.00;99.90
5899;DHT22;2975;50.956;6.962;2024-01-27T04:45:50;1.00;99.90
5899;DHT22;2975;50.956;6.962;2024-01-27T04:48:16;1.20;99.90
5899;DHT22;2975;50.956;6.962;2024-01-27T04:50:41;1.20;99.90
5899;DHT22;2975;50.956;6.962;2024-01-27T04:53:07;1.20;99.90
5899;DHT22;2975;50.956;6.962;2024-01-27T04:55:33;1.10;99.90
5899;DHT22;2975;50.956;6.962;2024-01-27T04:57:58;1.20;99.90
5899;DHT22;2975;50.956;6.962;2024-01-27T05:00:25;1.10;99.90
5899;DHT22;2975;50.956;6.962;2024-01-27T05:02:52;1.00;99.90
5899;DHT22;2975;50.956;6.962;2024-01-27T05:05:18;1.00;99.90
5899;DHT22;2975;50.956;6.962;2024-01-27T05:07:43;0.90;99.90
5899;DHT22;2975;50.956;6.962;2024-01-27T05:10:12;1.00;99.90
5899;DHT22;2975;50.956;6.962;2024-01-27T05:12:38;1.10;99.90
5899;DHT22;2975;50.956;6.962;2024-01-27T05:15:04;1.10;99.90
5899;DHT22;2975;50.956;6.962;2024-01-27T05:17:30;1.20;99.90
5899;DHT22;2975;50.956;6.962;2024-01-27T05:19:57;1.20;99.90
5899;DHT22;2975;50.956;6.962;2024-01-27T05:22:22;1.20;99.90
5899;DHT22;2975;50.956;6.962;2024-01-27T05:24:48;1.20;99.90
5899;DHT22;2975;50.956;6.962;2024-01-27T05:27:14;1.20;99.90
5899;DHT22;2975;50.956;6.962;2024-01-27T05:29:39;1.20;99.90
5899;DHT22;2975;50.956;6.962;2024-01-27T05:32:05;1.20;99.90
5899;DHT22;2975;50.956;6.962;2024-01-27T05:34:31;1.10;99.90
5899;DHT22;2975;50.956;6.962;2024-01-27T05:36:56;1.00;99.90
5899;DHT22;2975;50.956;6.962;2024-01-27T05:39:22;0.90;99.90
5899;DHT22;2975;50.956;6.962;2024-01-27T05:41:48;0.90;99.90
5899;DHT22;2975;50.956;6.962;2024-01-27T05:44:13;0.90;99.90
5899;DHT22;2975;50.956;6.962;2024-01-27T05:46:39;0.80;99.90
5899;DHT22;2975;50.956;6.962;2024-01-27T05:49:04;0.80;99.90
5899;DHT22;2975;50.956;6.962;2024-01-27T05:51:30;0.70;99.90
5899;DHT22;2975;50.956;6.962;2024-01-27T05:53:56;0.70;99.90
5899;DHT22;2975;50.956;6.962;2024-01-27T05:56:21;0.70;99.90
5899;DHT22;2975;50.956;6.962;2024-01-27T05:58:47;0.70;99.90
5899;DHT22;2975;50.956;6.962;2024-01-27T06:01:13;0.70;99.90
5899;DHT22;2975;50.956;6.962;2024-01-27T06:03:41;0.70;99.90
5899;DHT22;2975;50.956;6.962;2024-01-27T06:06:07;0.70;99.90
5899;DHT22;2975;50.956;6.962;2024-01-27T06:08:33;0.80;99.90
5899;DHT22;2975;50.956;6.962;2024-01-27T06:10:58;0.90;99.90
5899;DHT22;2975;50.956;6.962;2024-01-27T06:13:24;0.90;99.90
5899;DHT22;2975;50.956;6.962;2024-01-27T06:15:50;0.80;99.90
5899;DHT22;2975;50.956;6.962;2024-01-27T06:18:16;0.80;99.90
5899;DHT22;2975;50.956;6.962;2024-01-27T06:20:41;0.70;99.90
5899;DHT22;2975;50.956;6.962;2024-01-27T06:23:07;0.70;99.90
5899;DHT22;2975;50.956;6.962;2024-01-27T06:25:34;0.70;99.90
5899;DHT22;2975;50.956;6.962;2024-01-27T06:28:00;0.60;99.90
5899;DHT22;2975;50.956;6.962;2024-01-27T06:30:25;0.60;99.90
5899;DHT22;2975;50.956;6.962;2024-01-27T06:32:51;0.80;99.90
5899;DHT22;2975;50.956;6.962;2024-01-27T06:35:17;0.90;99.90
5899;DHT22;2975;50.956;6.962;2024-01-27T06:37:42;1.00;99.90
5899;DHT22;2975;50.956;6.962;2024-01-27T06:40:08;1.00;99.90
5899;DHT22;2975;50.956;6.962;2024-01-27T06:42:37;1.00;99.90
5899;DHT22;2975;50.956;6.962;2024-01-27T06:45:03;1.00;99.90
5899;DHT22;2975;50.956;6.962;2024-01-27T06:47:29;1.00;99.90
5899;DHT22;2975;50.956;6.962;2024-01-27T06:49:55;1.10;99.90
5899;DHT22;2975;50.956;6.962;2024-01-27T06:52:20;1.10;99.90
5899;DHT22;2975;50.956;6.962;2024-01-27T06:54:47;1.10;99.90
5899;DHT22;2975;50.956;6.962;2024-01-27T06:57:23;1.10;99.90
5899;DHT22;2975;50.956;6.962;2024-01-27T06:59:51;1.10;99.90
5899;DHT22;2975;50.956;6.962;2024-01-27T07:02:28;1.10;99.90
5899;DHT22;2975;50.956;6.962;2024-01-27T07:04:56;1.10;99.90
5899;DHT22;2975;50.956;6.962;2024-01-27T07:07:25;1.30;99.90
5899;DHT22;2975;50.956;6.962;2024-01-27T07:09:51;1.40;99.90
5899;DHT22;2975;50.956;6.962;2024-01-27T07:12:17;1.30;99.90
5899;DHT22;2975;50.956;6.962;2024-01-27T07:14:42;1.40;99.90
5899;DHT22;2975;50.956;6.962;2024-01-27T07:17:09;1.40;99.90
5899;DHT22;2975;50.956;6.962;2024-01-27T07:19:34;1.40;99.90
5899;DHT22;2975;50.956;6.962;2024-01-27T07:22:01;1.30;99.90
5899;DHT22;2975;50.956;6.962;2024-01-27T07:24:29;1.50;99.90
5899;DHT22;2975;50.956;6.962;2024-01-27T07:26:55;1.50;99.90
5899;DHT22;2975;50.956;6.962;2024-01-27T07:29:20;1.60;99.90
5899;DHT22;2975;50.956;6.962;2024-01-27T07:31:46;1.60;99.90
5899;DHT22;2975;50.956;6.962;2024-01-27T07:34:12;1.40;99.90
5899;DHT22;2975;50.956;6.962;2024-01-27T07:36:38;1.40;99.90
5899;DHT22;2975;50.956;6.962;2024-01-27T07:39:04;1.50;99.90
5899;DHT22;2975;50.956;6.962;2024-01-27T07:41:30;1.60;99.90
5899;DHT22;2975;50.956;6.962;2024-01-27T07:43:56;1.50;99.90
5899;DHT22;2975;50.956;6.962;2024-01-27T07:46:21;1.50;99.90
5899;DHT22;2975;50.956;6.962;2024-01-27T07:48:50;1.60;99.90
5899;DHT22;2975;50.956;6.962;2024-01-27T07:51:16;1.60;99.90
5899;DHT22;2975;50.956;6.962;2024-01-27T07:53:42;1.70;99.90
5899;DHT22;2975;50.956;6.962;2024-01-27T07:56:08;1.60;99.90
5899;DHT22;2975;50.956;6.962;2024-01-27T07:58:33;1.60;99.90
5899;DHT22;2975;50.956;6.962;2024-01-27T08:00:59;1.70;99.90
5899;DHT22;2975;50.956;6.962;2024-01-27T08:03:25;1.80;99.90
5899;DHT22;2975;50.956;6.962;2024-01-27T08:05:51;1.80;99.90
5899;DHT22;2975;50.956;6.962;2024-01-27T08:08:17;1.80;99.90
5899;DHT22;2975;50.956;6.962;2024-01-27T08:10:43;1.90;99.90
5899;DHT22;2975;50.956;6.962;2024-01-27T08:13:08;1.90;99.90
5899;DHT22;2975;50.956;6.962;2024-01-27T08:15:34;1.80;99.90
5899;DHT22;2975;50.956;6.962;2024-01-27T08:17:59;1.80;99.90
5899;DHT22;2975;50.956;6.962;2024-01-27T08:20:25;1.70;99.90
5899;DHT22;2975;50.956;6.962;2024-01-27T08:22:50;1.70;99.90
5899;DHT22;2975;50.956;6.962;2024-01-27T08:25:17;1.90;99.90
5899;DHT22;2975;50.956;6.962;2024-01-27T08:27:43;2.10;99.90
5899;DHT22;2975;50.956;6.962;2024-01-27T08:30:09;2.10;99.90
5899;DHT22;2975;50.956;6.962;2024-01-27T08:32:35;2.10;99.90
5899;DHT22;2975;50.956;6.962;2024-01-27T08:35:01;2.10;99.90
5899;DHT22;2975;50.956;6.962;2024-01-27T08:37:27;2.30;99.90
5899;DHT22;2975;50.956;6.962;2024-01-27T08:39:52;2.30;99.90
5899;DHT22;2975;50.956;6.962;2024-01-27T08:42:18;2.30;99.90
5899;DHT22;2975;50.956;6.962;2024-01-27T08:44:44;2.20;99.90
5899;DHT22;2975;50.956;6.962;2024-01-27T08:47:09;2.20;99.90
5899;DHT22;2975;50.956;6.962;2024-01-27T08:49:35;2.20;99.90
5899;DHT22;2975;50.956;6.962;2024-01-27T08:52:01;2.40;99.90
5899;DHT22;2975;50.956;6.962;2024-01-27T08:54:26;2.60;99.90
5899;DHT22;2975;50.956;6.962;2024-01-27T08:56:52;2.80;99.90
5899;DHT22;2975;50.956;6.962;2024-01-27T08:59:17;2.80;99.90
5899;DHT22;2975;50.956;6.962;2024-01-27T09:01:44;2.90;99.90
5899;DHT22;2975;50.956;6.962;2024-01-27T09:04:10;3.00;99.90
5899;DHT22;2975;50.956;6.962;2024-01-27T09:06:35;3.20;99.90
5899;DHT22;2975;50.956;6.962;2024-01-27T09:09:01;3.20;99.90
5899;DHT22;2975;50.956;6.962;2024-01-27T09:11:28;3.20;99.90
5899;DHT22;2975;50.956;6.962;2024-01-27T09:13:56;3.20;99.90
5899;DHT22;2975;50.956;6.962;2024-01-27T09:16:21;3.20;99.90
5899;DHT22;2975;50.956;6.962;2024-01-27T09:18:47;3.30;99.90
5899;DHT22;2975;50.956;6.962;2024-01-27T09:21:14;3.50;99.90
5899;DHT22;2975;50.956;6.962;2024-01-27T09:23:46;3.50;99.90
5899;DHT22;2975;50.956;6.962;2024-01-27T09:26:12;3.50;99.90
5899;DHT22;2975;50.956;6.962;2024-01-27T09:28:38;3.50;99.90
5899;DHT22;2975;50.956;6.962;2024-01-27T09:31:04;3.40;99.90
5899;DHT22;2975;50.956;6.962;2024-01-27T09:33:29;3.40;99.90
5899;DHT22;2975;50.956;6.962;2024-01-27T09:35:55;3.30;99.90
5899;DHT22;2975;50.956;6.962;2024-01-27T09:38:21;3.30;99.90
5899;DHT22;2975;50.956;6.962;2024-01-27T09:40:46;3.30;99.90
5899;DHT22;2975;50.956;6.962;2024-01-27T09:43:13;3.30;99.90
5899;DHT22;2975;50.956;6.962;2024-01-27T09:45:40;3.60;99.90
5899;DHT22;2975;50.956;6.962;2024-01-27T09:48:07;3.90;99.90
5899;DHT22;2975;50.956;6.962;2024-01-27T09:50:35;3.90;99.90
5899;DHT22;2975;50.956;6.962;2024-01-27T09:53:02;3.90;99.90
5899;DHT22;2975;50.956;6.962;2024-01-27T09:55:29;3.90;99.90
5899;DHT22;2975;50.956;6.962;2024-01-27T09:57:55;3.90;99.90
5899;DHT22;2975;50.956;6.962;2024-01-27T10:00:21;4.10;99.90
5899;DHT22;2975;50.956;6.962;2024-01-27T10:02:48;4.10;99.90
5899;DHT22;2975;50.956;6.962;2024-01-27T10:05:14;4.20;99.90
5899;DHT22;2975;50.956;6.962;2024-01-27T10:07:41;4.10;99.90
5899;DHT22;2975;50.956;6.962;2024-01-27T10:10:07;4.10;99.90
5899;DHT22;2975;50.956;6.962;2024-01-27T10:12:42;4.10;99.90
5899;DHT22;2975;50.956;6.962;2024-01-27T10:15:19;4.30;99.90
5899;DHT22;2975;50.956;6.962;2024-01-27T10:17:44;4.40;99.90
5899;DHT22;2975;50.956;6.962;2024-01-27T10:20:11;4.60;99.90
5899;DHT22;2975;50.956;6.962;2024-01-27T10:22:41;4.70;99.90
5899;DHT22;2975;50.956;6.962;2024-01-27T10:25:08;4.80;99.90
5899;DHT22;2975;50.956;6.962;2024-01-27T10:27:34;4.90;99.90
5899;DHT22;2975;50.956;6.962;2024-01-27T10:30:00;5.00;99.90
5899;DHT22;2975;50.956;6.962;2024-01-27T10:32:25;5.20;99.90
5899;DHT22;2975;50.956;6.962;2024-01-27T10:35:07;5.10;99.90
5899;DHT22;2975;50.956;6.962;2024-01-27T10:37:36;5.00;99.90
5899;DHT22;2975;50.956;6.962;2024-01-27T10:40:03;5.10;99.90
5899;DHT22;2975;50.956;6.962;2024-01-27T10:42:29;5.10;99.90
5899;DHT22;2975;50.956;6.962;2024-01-27T10:44:58;5.20;99.90
5899;DHT22;2975;50.956;6.962;2024-01-27T10:47:29;5.20;99.90
5899;DHT22;2975;50.956;6.962;2024-01-27T10:49:58;5.30;99.90
5899;DHT22;2975;50.956;6.962;2024-01-27T10:52:25;5.40;99.90
5899;DHT22;2975;50.956;6.962;2024-01-27T10:55:04;5.50;99.90
5899;DHT22;2975;50.956;6.962;2024-01-27T10:57:33;5.50;99.90
5899;DHT22;2975;50.956;6.962;2024-01-27T11:00:02;5.40;99.90
5899;DHT22;2975;50.956;6.962;2024-01-27T11:02:33;5.40;99.90
5899;DHT22;2975;50.956;6.962;2024-01-27T11:05:03;5.60;99.90
5899;DHT22;2975;50.956;6.962;2024-01-27T11:07:33;5.70;99.90
5899;DHT22;2975;50.956;6.962;2024-01-27T11:09:59;5.70;99.90
5899;DHT22;2975;50.956;6.962;2024-01-27T11:12:25;5.90;99.90
5899;DHT22;2975;50.956;6.962;2024-01-27T11:14:52;5.80;99.90
5899;DHT22;2975;50.956;6.962;2024-01-27T11:17:19;5.70;99.90
5899;DHT22;2975;50.956;6.962;2024-01-27T11:19:45;5.70;99.90
5899;DHT22;2975;50.956;6.962;2024-01-27T11:22:25;5.80;99.90
5899;DHT22;2975;50.956;6.962;2024-01-27T11:24:52;5.90;99.90
5899;DHT22;2975;50.956;6.962;2024-01-27T11:27:18;6.00;99.90
5899;DHT22;2975;50.956;6.962;2024-01-27T11:29:47;6.00;99.90
5899;DHT22;2975;50.956;6.962;2024-01-27T11:32:15;6.10;99.90
5899;DHT22;2975;50.956;6.962;2024-01-27T11:34:44;6.20;99.90
5899;DHT22;2975;50.956;6.962;2024-01-27T11:37:11;6.20;99.90
5899;DHT22;2975;50.956;6.962;2024-01-27T11:39:37;6.20;99.90
5899;DHT22;2975;50.956;6.962;2024-01-27T11:42:10;6.30;99.90
5899;DHT22;2975;50.956;6.962;2024-01-27T11:44:40;6.30;99.90
5899;DHT22;2975;50.956;6.962;2024-01-27T11:47:16;6.40;99.90
5899;DHT22;2975;50.956;6.962;2024-01-27T11:49:43;6.40;99.90
5899;DHT22;2975;50.956;6.962;2024-01-27T11:52:09;6.40;99.90
5899;DHT22;2975;50.956;6.962;2024-01-27T11:54:35;6.60;99.90
5899;DHT22;2975;50.956;6.962;2024-01-27T11:57:01;6.50;99.90
5899;DHT22;2975;50.956;6.962;2024-01-27T11:59:27;6.50;99.90
5899;DHT22;2975;50.956;6.962;2024-01-27T12:01:53;6.50;99.90
5899;DHT22;2975;50.956;6.962;2024-01-27T12:04:18;6.40;99.90
5899;DHT22;2975;50.956;6.962;2024-01-27T12:06:47;6.30;99.90
5899;DHT22;2975;50.956;6.962;2024-01-27T12:09:13;6.30;99.90
5899;DHT22;2975;50.956;6.962;2024-01-27T12:11:39;6.30;99.90
5899;DHT22;2975;50.956;6.962;2024-01-27T12:14:06;6.30;99.90
5899;DHT22;2975;50.956;6.962;2024-01-27T12:16:32;6.40;99.90
5899;DHT22;2975;50.956;6.962;2024-01-27T12:18:57;6.50;99.90
5899;DHT22;2975;50.956;6.962;2024-01-27T12:21:23;6.50;99.90
5899;DHT22;2975;50.956;6.962;2024-01-27T12:23:56;6.50;99.90
5899;DHT22;2975;50.956;6.962;2024-01-27T12:26:24;6.50;99.90
5899;DHT22;2975;50.956;6.962;2024-01-27T12:28:50;6.50;99.90
5899;DHT22;2975;50.956;6.962;2024-01-27T12:31:19;6.60;99.90
5899;DHT22;2975;50.956;6.962;2024-01-27T12:33:55;6.70;99.90
5899;DHT22;2975;50.956;6.962;2024-01-27T12:36:22;6.70;99.90
5899;DHT22;2975;50.956;6.962;2024-01-27T12:38:58;6.80;99.90
5899;DHT22;2975;50.956;6.962;2024-01-27T12:41:27;6.80;99.90
5899;DHT22;2975;50.956;6.962;2024-01-27T12:43:54;6.70;99.90
5899;DHT22;2975;50.956;6.962;2024-01-27T12:46:20;6.70;99.90
5899;DHT22;2975;50.956;6.962;2024-01-27T12:48:46;6.80;99.90
5899;DHT22;2975;50.956;6.962;2024-01-27T12:51:11;6.80;99.90
5899;DHT22;2975;50.956;6.962;2024-01-27T12:53:41;6.90;99.90
5899;DHT22;2975;50.956;6.962;2024-01-27T12:56:09;6.80;99.90
5899;DHT22;2975;50.956;6.962;2024-01-27T12:58:35;6.90;99.90
5899;DHT22;2975;50.956;6.962;2024-01-27T13:01:01;6.90;99.90
5899;DHT22;2975;50.956;6.962;2024-01-27T13:03:26;6.90;99.90
5899;DHT22;2975;50.956;6.962;2024-01-27T13:05:53;7.00;99.90
5899;DHT22;2975;50.956;6.962;2024-01-27T13:08:19;6.90;99.90
5899;DHT22;2975;50.956;6.962;2024-01-27T13:10:45;6.90;99.90
5899;DHT22;2975;50.956;6.962;2024-01-27T13:13:10;6.90;99.90
5899;DHT22;2975;50.956;6.962;2024-01-27T13:15:36;7.00;99.90
5899;DHT22;2975;50.956;6.962;2024-01-27T13:18:02;7.10;99.90
5899;DHT22;2975;50.956;6.962;2024-01-27T13:20:27;7.10;99.90
5899;DHT22;2975;50.956;6.962;2024-01-27T13:22:53;7.10;99.90
5899;DHT22;2975;50.956;6.962;2024-01-27T13:25:19;7.10;99.90
5899;DHT22;2975;50.956;6.962;2024-01-27T13:27:45;7.00;99.90
5899;DHT22;2975;50.956;6.962;2024-01-27T13:30:11;7.00;99.90
5899;DHT22;2975;50.956;6.962;2024-01-27T13:32:38;7.00;99.90
5899;DHT22;2975;50.956;6.962;2024-01-27T13:35:04;7.00;99.90
5899;DHT22;2975;50.956;6.962;2024-01-27T13:37:30;7.10;99.90
5899;DHT22;2975;50.956;6.962;2024-01-27T13:40:04;7.00;99.90
5899;DHT22;2975;50.956;6.962;2024-01-27T13:42:33;7.10;99.90
5899;DHT22;2975;50.956;6.962;2024-01-27T13:44:58;7.10;99.90
5899;DHT22;2975;50.956;6.962;2024-01-27T13:47:24;7.00;99.90
5899;DHT22;2975;50.956;6.962;2024-01-27T13:49:49;7.10;99.90
5899;DHT22;2975;50.956;6.962;2024-01-27T13:52:15;7.30;99.90
5899;DHT22;2975;50.956;6.962;2024-01-27T13:54:41;7.40;99.70
5899;DHT22;2975;50.956;6.962;2024-01-27T13:57:06;7.40;99.90
5899;DHT22;2975;50.956;6.962;2024-01-27T13:59:33;7.30;99.90
5899;DHT22;2975;50.956;6.962;2024-01-27T14:01:59;7.30;99.90
5899;DHT22;2975;50.956;6.962;2024-01-27T14:04:25;7.40;99.80
5899;DHT22;2975;50.956;6.962;2024-01-27T14:06:54;7.40;99.90
5899;DHT22;2975;50.956;6.962;2024-01-27T14:09:23;7.30;99.90
5899;DHT22;2975;50.956;6.962;2024-01-27T14:11:49;7.40;99.90
5899;DHT22;2975;50.956;6.962;2024-01-27T14:14:15;7.40;99.80
5899;DHT22;2975;50.956;6.962;2024-01-27T14:16:43;7.40;99.70
5899;DHT22;2975;50.956;6.962;2024-01-27T14:19:10;7.40;99.70
5899;DHT22;2975;50.956;6.962;2024-01-27T14:21:36;7.40;99.30
5899;DHT22;2975;50.956;6.962;2024-01-27T14:24:02;7.40;99.50
5899;DHT22;2975;50.956;6.962;2024-01-27T14:26:31;7.40;99.40
5899;DHT22;2975;50.956;6.962;2024-01-27T14:28:58;7.40;99.30
5899;DHT22;2975;50.956;6.962;2024-01-27T14:31:23;7.40;98.90
5899;DHT22;2975;50.956;6.962;2024-01-27T14:33:49;7.50;98.70
5899;DHT22;2975;50.956;6.962;2024-01-27T14:36:15;7.50;98.40
5899;DHT22;2975;50.956;6.962;2024-01-27T14:38:41;7.50;98.40
5899;DHT22;2975;50.956;6.962;2024-01-27T14:41:07;7.50;98.50
5899;DHT22;2975;50.956;6.962;2024-01-27T14:43:33;7.40;98.60
5899;DHT22;2975;50.956;6.962;2024-01-27T14:45:59;7.50;98.60
5899;DHT22;2975;50.956;6.962;2024-01-27T14:48:25;7.50;98.40
5899;DHT22;2975;50.956;6.962;2024-01-27T14:50:51;7.60;98.00
5899;DHT22;2975;50.956;6.962;2024-01-27T14:53:27;7.70;97.90
5899;DHT22;2975;50.956;6.962;2024-01-27T14:55:56;7.70;97.80
5899;DHT22;2975;50.956;6.962;2024-01-27T14:58:22;7.80;97.50
5899;DHT22;2975;50.956;6.962;2024-01-27T15:00:48;7.70;97.70
5899;DHT22;2975;50.956;6.962;2024-01-27T15:03:19;7.70;97.90
5899;DHT22;2975;50.956;6.962;2024-01-27T15:05:45;7.60;98.00
5899;DHT22;2975;50.956;6.962;2024-01-27T15:08:11;7.60;98.00
5899;DHT22;2975;50.956;6.962;2024-01-27T15:10:37;7.60;98.00
5899;DHT22;2975;50.956;6.962;2024-01-27T15:13:05;7.60;97.90
5899;DHT22;2975;50.956;6.962;2024-01-27T15:15:31;7.70;97.50
5899;DHT22;2975;50.956;6.962;2024-01-27T15:17:57;7.60;97.70
5899;DHT22;2975;50.956;6.962;2024-01-27T15:20:26;7.50;97.80
5899;DHT22;2975;50.956;6.962;2024-01-27T15:22:53;7.40;97.80
5899;DHT22;2975;50.956;6.962;2024-01-27T15:25:18;7.30;98.00
5899;DHT22;2975;50.956;6.962;2024-01-27T15:27:44;7.20;98.30
5899;DHT22;2975;50.956;6.962;2024-01-27T15:30:11;7.10;98.40
5899;DHT22;2975;50.956;6.962;2024-01-27T15:32:37;7.00;98.50
5899;DHT22;2975;50.956;6.962;2024-01-27T15:35:03;6.90;98.60
5899;DHT22;2975;50.956;6.962;2024-01-27T15:37:29;6.80;98.70
5899;DHT22;2975;50.956;6.962;2024-01-27T15:39:54;6.80;98.90
5899;DHT22;2975;50.956;6.962;2024-01-27T15:42:21;6.70;99.00
5899;DHT22;2975;50.956;6.962;2024-01-27T15:44:48;6.60;99.00
5899;DHT22;2975;50.956;6.962;2024-01-27T15:47:14;6.60;99.00
5899;DHT22;2975;50.956;6.962;2024-01-27T15:49:40;6.50;99.00
5899;DHT22;2975;50.956;6.962;2024-01-27T15:52:07;6.50;99.10
5899;DHT22;2975;50.956;6.962;2024-01-27T15:54:33;6.40;99.20
5899;DHT22;2975;50.956;6.962;2024-01-27T15:56:58;6.30;99.20
5899;DHT22;2975;50.956;6.962;2024-01-27T15:59:24;6.30;99.40
5899;DHT22;2975;50.956;6.962;2024-01-27T16:01:49;6.20;99.50
5899;DHT22;2975;50.956;6.962;2024-01-27T16:04:15;6.10;99.60
5899;DHT22;2975;50.956;6.962;2024-01-27T16:06:40;6.00;99.80
5899;DHT22;2975;50.956;6.962;2024-01-27T16:09:06;5.90;99.90
5899;DHT22;2975;50.956;6.962;2024-01-27T16:11:32;5.80;99.90